Saint Petersburg, Florida
Current Conditions -  °F | °C
As of 11:53 PM on Wednesday 22 Oct 2014 (Local Time) from KSPG Reporting Station
Clear Clear  
Wind Chill: 75°   Ceiling: Unl
Heat Index: 75°   Visibility: 10mi
Dew Point: 65°   Wind: 18mph
Humidity: 71%   Direction: 80°E
Pressure: 29.97"   Gusts: NA
Location:  27.77°N, 82.63°W
Report Text: KSPG 230353Z AUTO 08016KT 10SM CLR 24/18 A2997 RMK AO2 SLP148 T02390183
Loading
Personal Weather Stations






























Interactive Weather Map
Tropical Storm Tracking
New forecast layout! Learn more

10-Day Weather Forecast

Advertisements
Track Severe Weather on mobile